sensor_id;sensor_type;location;lat;lon;timestamp;temperature;humidity
29803;DHT22;16702;50.898;4.662;2024-01-15T00:00:21;2.90;99.90
29803;DHT22;16702;50.898;4.662;2024-01-15T00:02:52;3.00;99.90
29803;DHT22;16702;50.898;4.662;2024-01-15T00:05:23;3.10;99.90
29803;DHT22;16702;50.898;4.662;2024-01-15T00:07:53;3.00;99.90
29803;DHT22;16702;50.898;4.662;2024-01-15T00:10:24;3.00;99.90
29803;DHT22;16702;50.898;4.662;2024-01-15T00:12:57;3.00;99.90
29803;DHT22;16702;50.898;4.662;2024-01-15T00:15:27;3.00;99.90
29803;DHT22;16702;50.898;4.662;2024-01-15T00:17:58;3.10;99.90
29803;DHT22;16702;50.898;4.662;2024-01-15T00:20:29;3.00;99.90
29803;DHT22;16702;50.898;4.662;2024-01-15T00:22:59;3.00;99.90
29803;DHT22;16702;50.898;4.662;2024-01-15T00:25:30;3.00;99.90
29803;DHT22;16702;50.898;4.662;2024-01-15T00:28:04;3.00;99.90
29803;DHT22;16702;50.898;4.662;2024-01-15T00:30:35;3.00;99.90
29803;DHT22;16702;50.898;4.662;2024-01-15T00:33:05;3.00;99.90
29803;DHT22;16702;50.898;4.662;2024-01-15T00:35:36;3.00;99.90
29803;DHT22;16702;50.898;4.662;2024-01-15T00:38:07;3.00;99.90
29803;DHT22;16702;50.898;4.662;2024-01-15T00:40:37;3.00;99.90
29803;DHT22;16702;50.898;4.662;2024-01-15T00:43:10;3.00;99.90
29803;DHT22;16702;50.898;4.662;2024-01-15T00:45:42;3.00;99.90
29803;DHT22;16702;50.898;4.662;2024-01-15T00:48:13;3.00;99.90
29803;DHT22;16702;50.898;4.662;2024-01-15T00:50:43;3.10;99.90
29803;DHT22;16702;50.898;4.662;2024-01-15T00:53:14;3.10;99.90
29803;DHT22;16702;50.898;4.662;2024-01-15T00:55:44;3.10;99.90
29803;DHT22;16702;50.898;4.662;2024-01-15T00:58:19;3.20;99.90
29803;DHT22;16702;50.898;4.662;2024-01-15T01:00:49;3.10;99.90
29803;DHT22;16702;50.898;4.662;2024-01-15T01:03:20;3.10;99.90
29803;DHT22;16702;50.898;4.662;2024-01-15T01:05:51;3.10;99.90
29803;DHT22;16702;50.898;4.662;2024-01-15T01:08:21;3.20;99.90
29803;DHT22;16702;50.898;4.662;2024-01-15T01:10:52;3.10;99.90
29803;DHT22;16702;50.898;4.662;2024-01-15T01:13:25;3.20;99.90
29803;DHT22;16702;50.898;4.662;2024-01-15T01:15:55;3.20;99.90
29803;DHT22;16702;50.898;4.662;2024-01-15T01:18:26;3.20;99.90
29803;DHT22;16702;50.898;4.662;2024-01-15T01:20:57;3.30;99.90
29803;DHT22;16702;50.898;4.662;2024-01-15T01:23:28;3.30;99.90
29803;DHT22;16702;50.898;4.662;2024-01-15T01:25:58;3.20;99.90
29803;DHT22;16702;50.898;4.662;2024-01-15T01:28:31;3.20;99.90
29803;DHT22;16702;50.898;4.662;2024-01-15T01:31:02;3.20;99.90
29803;DHT22;16702;50.898;4.662;2024-01-15T01:33:33;3.20;99.90
29803;DHT22;16702;50.898;4.662;2024-01-15T01:36:07;3.20;99.90
29803;DHT22;16702;50.898;4.662;2024-01-15T01:38:40;3.20;99.90
29803;DHT22;16702;50.898;4.662;2024-01-15T01:41:11;3.10;99.90
29803;DHT22;16702;50.898;4.662;2024-01-15T01:43:44;3.10;99.90
29803;DHT22;16702;50.898;4.662;2024-01-15T01:46:14;3.20;99.90
29803;DHT22;16702;50.898;4.662;2024-01-15T01:48:45;3.20;99.90
29803;DHT22;16702;50.898;4.662;2024-01-15T01:51:16;3.10;99.90
29803;DHT22;16702;50.898;4.662;2024-01-15T01:53:46;3.20;99.90
29803;DHT22;16702;50.898;4.662;2024-01-15T01:56:17;3.10;99.90
29803;DHT22;16702;50.898;4.662;2024-01-15T01:58:51;3.20;99.90
29803;DHT22;16702;50.898;4.662;2024-01-15T02:01:21;3.20;99.90
29803;DHT22;16702;50.898;4.662;2024-01-15T02:03:52;3.20;99.90
29803;DHT22;16702;50.898;4.662;2024-01-15T02:06:24;3.20;99.90
29803;DHT22;16702;50.898;4.662;2024-01-15T02:08:55;3.20;99.90
29803;DHT22;16702;50.898;4.662;2024-01-15T02:11:25;3.20;99.90
29803;DHT22;16702;50.898;4.662;2024-01-15T02:13:59;3.30;99.90
29803;DHT22;16702;50.898;4.662;2024-01-15T02:16:29;3.30;99.90
29803;DHT22;16702;50.898;4.662;2024-01-15T02:19:00;3.20;99.90
29803;DHT22;16702;50.898;4.662;2024-01-15T02:21:31;3.20;99.90
29803;DHT22;16702;50.898;4.662;2024-01-15T02:24:05;3.20;99.90
29803;DHT22;16702;50.898;4.662;2024-01-15T02:26:36;3.30;99.90
29803;DHT22;16702;50.898;4.662;2024-01-15T02:29:07;3.30;99.90
29803;DHT22;16702;50.898;4.662;2024-01-15T02:31:38;3.30;99.90
29803;DHT22;16702;50.898;4.662;2024-01-15T02:34:09;3.30;99.90
29803;DHT22;16702;50.898;4.662;2024-01-15T02:36:40;3.30;99.90
29803;DHT22;16702;50.898;4.662;2024-01-15T02:39:13;3.30;99.90
29803;DHT22;16702;50.898;4.662;2024-01-15T02:41:44;3.30;99.90
29803;DHT22;16702;50.898;4.662;2024-01-15T02:44:14;3.30;99.90
29803;DHT22;16702;50.898;4.662;2024-01-15T02:46:45;3.30;99.90
29803;DHT22;16702;50.898;4.662;2024-01-15T02:49:18;3.30;99.90
29803;DHT22;16702;50.898;4.662;2024-01-15T02:51:49;3.30;99.90
29803;DHT22;16702;50.898;4.662;2024-01-15T02:54:23;3.30;99.90
29803;DHT22;16702;50.898;4.662;2024-01-15T02:56:53;3.30;99.90
29803;DHT22;16702;50.898;4.662;2024-01-15T02:59:24;3.30;99.90
29803;DHT22;16702;50.898;4.662;2024-01-15T03:01:54;3.30;99.90
29803;DHT22;16702;50.898;4.662;2024-01-15T03:04:25;3.30;99.90
29803;DHT22;16702;50.898;4.662;2024-01-15T03:06:55;3.30;99.90
29803;DHT22;16702;50.898;4.662;2024-01-15T03:09:29;3.30;99.90
29803;DHT22;16702;50.898;4.662;2024-01-15T03:11:59;3.30;99.90
29803;DHT22;16702;50.898;4.662;2024-01-15T03:14:30;3.30;99.90
29803;DHT22;16702;50.898;4.662;2024-01-15T03:17:00;3.30;99.90
29803;DHT22;16702;50.898;4.662;2024-01-15T03:19:31;3.30;99.90
29803;DHT22;16702;50.898;4.662;2024-01-15T03:22:04;3.30;99.90
29803;DHT22;16702;50.898;4.662;2024-01-15T03:24:39;3.40;99.90
29803;DHT22;16702;50.898;4.662;2024-01-15T03:27:09;3.30;99.90
29803;DHT22;16702;50.898;4.662;2024-01-15T03:29:40;3.30;99.90
29803;DHT22;16702;50.898;4.662;2024-01-15T03:32:11;3.30;99.90
29803;DHT22;16702;50.898;4.662;2024-01-15T03:34:43;3.30;99.90
29803;DHT22;16702;50.898;4.662;2024-01-15T03:37:15;3.30;99.90
29803;DHT22;16702;50.898;4.662;2024-01-15T03:39:48;3.30;99.90
29803;DHT22;16702;50.898;4.662;2024-01-15T03:42:18;3.30;99.90
29803;DHT22;16702;50.898;4.662;2024-01-15T03:44:49;3.30;99.90
29803;DHT22;16702;50.898;4.662;2024-01-15T03:47:20;3.40;99.90
29803;DHT22;16702;50.898;4.662;2024-01-15T03:49:50;3.30;99.90
29803;DHT22;16702;50.898;4.662;2024-01-15T03:52:21;3.40;99.90
29803;DHT22;16702;50.898;4.662;2024-01-15T03:54:54;3.40;99.90
29803;DHT22;16702;50.898;4.662;2024-01-15T03:57:24;3.40;99.90
29803;DHT22;16702;50.898;4.662;2024-01-15T03:59:55;3.50;99.90
29803;DHT22;16702;50.898;4.662;2024-01-15T04:02:26;3.40;99.90
29803;DHT22;16702;50.898;4.662;2024-01-15T04:04:56;3.50;99.90
29803;DHT22;16702;50.898;4.662;2024-01-15T04:07:27;3.40;99.90
29803;DHT22;16702;50.898;4.662;2024-01-15T04:10:00;3.40;99.90
29803;DHT22;16702;50.898;4.662;2024-01-15T04:12:31;3.40;99.90
29803;DHT22;16702;50.898;4.662;2024-01-15T04:15:01;3.30;99.90
29803;DHT22;16702;50.898;4.662;2024-01-15T04:17:32;3.30;99.90
29803;DHT22;16702;50.898;4.662;2024-01-15T04:20:03;3.30;99.90
29803;DHT22;16702;50.898;4.662;2024-01-15T04:22:34;3.30;99.90
29803;DHT22;16702;50.898;4.662;2024-01-15T04:25:08;3.30;99.90
29803;DHT22;16702;50.898;4.662;2024-01-15T04:27:38;3.30;99.90
29803;DHT22;16702;50.898;4.662;2024-01-15T04:30:10;3.40;99.90
29803;DHT22;16702;50.898;4.662;2024-01-15T04:32:41;3.30;99.90
29803;DHT22;16702;50.898;4.662;2024-01-15T04:35:12;3.30;99.90
29803;DHT22;16702;50.898;4.662;2024-01-15T04:37:42;3.30;99.90
29803;DHT22;16702;50.898;4.662;2024-01-15T04:40:16;3.30;99.90
29803;DHT22;16702;50.898;4.662;2024-01-15T04:42:46;3.20;99.90
29803;DHT22;16702;50.898;4.662;2024-01-15T04:45:17;3.20;99.90
29803;DHT22;16702;50.898;4.662;2024-01-15T04:47:50;3.30;99.90
29803;DHT22;16702;50.898;4.662;2024-01-15T04:50:20;3.20;99.90
29803;DHT22;16702;50.898;4.662;2024-01-15T04:52:51;3.20;99.90
29803;DHT22;16702;50.898;4.662;2024-01-15T04:55:24;3.10;99.90
29803;DHT22;16702;50.898;4.662;2024-01-15T04:57:55;3.10;99.90
29803;DHT22;16702;50.898;4.662;2024-01-15T05:00:25;3.20;99.90
29803;DHT22;16702;50.898;4.662;2024-01-15T05:02:56;3.10;99.90
29803;DHT22;16702;50.898;4.662;2024-01-15T05:05:26;3.10;99.90
29803;DHT22;16702;50.898;4.662;2024-01-15T05:07:57;3.10;99.90
29803;DHT22;16702;50.898;4.662;2024-01-15T05:10:30;3.10;99.90
29803;DHT22;16702;50.898;4.662;2024-01-15T05:13:01;3.10;99.90
29803;DHT22;16702;50.898;4.662;2024-01-15T05:15:31;3.10;99.90
29803;DHT22;16702;50.898;4.662;2024-01-15T05:18:02;3.10;99.90
29803;DHT22;16702;50.898;4.662;2024-01-15T05:20:34;3.10;99.90
29803;DHT22;16702;50.898;4.662;2024-01-15T05:23:05;3.10;99.90
29803;DHT22;16702;50.898;4.662;2024-01-15T05:25:38;3.10;99.90
29803;DHT22;16702;50.898;4.662;2024-01-15T05:28:08;3.00;99.90
29803;DHT22;16702;50.898;4.662;2024-01-15T05:30:39;3.10;99.90
29803;DHT22;16702;50.898;4.662;2024-01-15T05:33:10;3.10;99.90
29803;DHT22;16702;50.898;4.662;2024-01-15T05:35:41;3.10;99.90
29803;DHT22;16702;50.898;4.662;2024-01-15T05:38:12;3.10;99.90
29803;DHT22;16702;50.898;4.662;2024-01-15T05:40:45;3.10;99.90
29803;DHT22;16702;50.898;4.662;2024-01-15T05:43:15;3.00;99.90
29803;DHT22;16702;50.898;4.662;2024-01-15T05:45:46;3.00;99.90
29803;DHT22;16702;50.898;4.662;2024-01-15T05:48:16;3.00;99.90
29803;DHT22;16702;50.898;4.662;2024-01-15T05:50:47;3.00;99.90
29803;DHT22;16702;50.898;4.662;2024-01-15T05:53:18;3.00;99.90
29803;DHT22;16702;50.898;4.662;2024-01-15T05:55:51;2.90;99.90
29803;DHT22;16702;50.898;4.662;2024-01-15T05:58:23;2.90;99.90
29803;DHT22;16702;50.898;4.662;2024-01-15T06:00:54;3.00;99.90
29803;DHT22;16702;50.898;4.662;2024-01-15T06:03:25;2.90;99.90
29803;DHT22;16702;50.898;4.662;2024-01-15T06:05:56;2.90;99.90
29803;DHT22;16702;50.898;4.662;2024-01-15T06:08:27;3.00;99.90
29803;DHT22;16702;50.898;4.662;2024-01-15T06:11:00;2.90;99.90
29803;DHT22;16702;50.898;4.662;2024-01-15T06:13:31;2.90;99.90
29803;DHT22;16702;50.898;4.662;2024-01-15T06:16:01;2.90;99.90
29803;DHT22;16702;50.898;4.662;2024-01-15T06:18:33;2.90;99.90
29803;DHT22;16702;50.898;4.662;2024-01-15T06:21:05;2.90;99.90
29803;DHT22;16702;50.898;4.662;2024-01-15T06:23:37;2.90;99.90
29803;DHT22;16702;50.898;4.662;2024-01-15T06:26:11;2.80;99.90
29803;DHT22;16702;50.898;4.662;2024-01-15T06:28:42;2.80;99.90
29803;DHT22;16702;50.898;4.662;2024-01-15T06:31:12;2.80;99.90
29803;DHT22;16702;50.898;4.662;2024-01-15T06:33:43;2.80;99.90
29803;DHT22;16702;50.898;4.662;2024-01-15T06:36:16;2.90;99.90
29803;DHT22;16702;50.898;4.662;2024-01-15T06:38:47;2.80;99.90
29803;DHT22;16702;50.898;4.662;2024-01-15T06:41:20;2.80;99.90
29803;DHT22;16702;50.898;4.662;2024-01-15T06:43:50;2.80;99.90
29803;DHT22;16702;50.898;4.662;2024-01-15T06:46:21;2.80;99.90
29803;DHT22;16702;50.898;4.662;2024-01-15T06:48:52;2.80;99.90
29803;DHT22;16702;50.898;4.662;2024-01-15T06:51:23;2.80;99.90
29803;DHT22;16702;50.898;4.662;2024-01-15T06:53:53;2.80;99.90
29803;DHT22;16702;50.898;4.662;2024-01-15T06:56:26;2.80;99.90
29803;DHT22;16702;50.898;4.662;2024-01-15T06:58:57;2.80;99.90
29803;DHT22;16702;50.898;4.662;2024-01-15T07:01:29;2.80;99.90
29803;DHT22;16702;50.898;4.662;2024-01-15T07:03:59;2.80;99.90
29803;DHT22;16702;50.898;4.662;2024-01-15T07:06:30;2.80;99.90
29803;DHT22;16702;50.898;4.662;2024-01-15T07:09:01;2.80;99.90
29803;DHT22;16702;50.898;4.662;2024-01-15T07:11:35;2.80;99.90
29803;DHT22;16702;50.898;4.662;2024-01-15T07:14:05;2.80;99.90
29803;DHT22;16702;50.898;4.662;2024-01-15T07:16:36;2.80;99.90
29803;DHT22;16702;50.898;4.662;2024-01-15T07:19:06;2.70;99.90
29803;DHT22;16702;50.898;4.662;2024-01-15T07:21:37;2.80;99.90
29803;DHT22;16702;50.898;4.662;2024-01-15T07:24:10;2.70;99.90
29803;DHT22;16702;50.898;4.662;2024-01-15T07:26:44;2.80;99.90
29803;DHT22;16702;50.898;4.662;2024-01-15T07:29:14;2.80;99.90
29803;DHT22;16702;50.898;4.662;2024-01-15T07:31:48;2.80;99.90
29803;DHT22;16702;50.898;4.662;2024-01-15T07:34:19;2.70;99.90
29803;DHT22;16702;50.898;4.662;2024-01-15T07:36:50;2.70;99.90
29803;DHT22;16702;50.898;4.662;2024-01-15T07:39:21;2.80;99.90
29803;DHT22;16702;50.898;4.662;2024-01-15T07:41:55;2.80;99.90
29803;DHT22;16702;50.898;4.662;2024-01-15T07:44:26;2.80;99.90
29803;DHT22;16702;50.898;4.662;2024-01-15T07:46:56;2.80;99.90
29803;DHT22;16702;50.898;4.662;2024-01-15T07:49:27;2.80;99.90
29803;DHT22;16702;50.898;4.662;2024-01-15T07:51:58;2.70;99.90
29803;DHT22;16702;50.898;4.662;2024-01-15T07:54:28;2.80;99.90
29803;DHT22;16702;50.898;4.662;2024-01-15T07:57:02;2.70;99.90
29803;DHT22;16702;50.898;4.662;2024-01-15T07:59:35;2.70;99.90
29803;DHT22;16702;50.898;4.662;2024-01-15T08:02:05;2.70;99.90
29803;DHT22;16702;50.898;4.662;2024-01-15T08:04:37;2.70;99.90
29803;DHT22;16702;50.898;4.662;2024-01-15T08:07:07;2.70;99.90
29803;DHT22;16702;50.898;4.662;2024-01-15T08:09:38;2.80;99.90
29803;DHT22;16702;50.898;4.662;2024-01-15T08:12:12;2.80;99.90
29803;DHT22;16702;50.898;4.662;2024-01-15T08:14:42;2.70;99.90
29803;DHT22;16702;50.898;4.662;2024-01-15T08:17:13;2.80;99.90
29803;DHT22;16702;50.898;4.662;2024-01-15T08:19:44;2.80;99.90
29803;DHT22;16702;50.898;4.662;2024-01-15T08:22:15;2.80;99.90
29803;DHT22;16702;50.898;4.662;2024-01-15T08:24:45;2.80;99.90
29803;DHT22;16702;50.898;4.662;2024-01-15T08:27:19;2.80;99.90
29803;DHT22;16702;50.898;4.662;2024-01-15T08:29:50;2.80;99.90
29803;DHT22;16702;50.898;4.662;2024-01-15T08:32:20;2.80;99.90
29803;DHT22;16702;50.898;4.662;2024-01-15T08:34:51;2.90;99.90
29803;DHT22;16702;50.898;4.662;2024-01-15T08:37:22;2.80;99.90
29803;DHT22;16702;50.898;4.662;2024-01-15T08:39:53;2.90;99.90
29803;DHT22;16702;50.898;4.662;2024-01-15T08:42:26;2.80;99.90
29803;DHT22;16702;50.898;4.662;2024-01-15T08:44:56;2.80;99.90
29803;DHT22;16702;50.898;4.662;2024-01-15T08:47:27;2.80;99.90
29803;DHT22;16702;50.898;4.662;2024-01-15T08:49:57;2.80;99.90
29803;DHT22;16702;50.898;4.662;2024-01-15T08:52:28;2.90;99.90
29803;DHT22;16702;50.898;4.662;2024-01-15T08:54:59;2.80;99.90
29803;DHT22;16702;50.898;4.662;2024-01-15T08:57:32;2.80;99.90
29803;DHT22;16702;50.898;4.662;2024-01-15T09:00:03;2.90;99.90
29803;DHT22;16702;50.898;4.662;2024-01-15T09:02:36;2.80;99.90
29803;DHT22;16702;50.898;4.662;2024-01-15T09:05:07;2.80;99.90
29803;DHT22;16702;50.898;4.662;2024-01-15T09:07:38;2.90;99.90
29803;DHT22;16702;50.898;4.662;2024-01-15T09:10:09;2.90;99.90
29803;DHT22;16702;50.898;4.662;2024-01-15T09:12:42;2.90;99.90
29803;DHT22;16702;50.898;4.662;2024-01-15T09:15:13;2.90;99.90
29803;DHT22;16702;50.898;4.662;2024-01-15T09:17:43;2.80;99.90
29803;DHT22;16702;50.898;4.662;2024-01-15T09:20:14;2.90;99.90
29803;DHT22;16702;50.898;4.662;2024-01-15T09:22:46;2.90;99.90
29803;DHT22;16702;50.898;4.662;2024-01-15T09:25:16;2.90;99.90
29803;DHT22;16702;50.898;4.662;2024-01-15T09:27:49;2.90;99.90
29803;DHT22;16702;50.898;4.662;2024-01-15T09:30:20;2.90;99.90
29803;DHT22;16702;50.898;4.662;2024-01-15T09:32:51;2.90;99.90
29803;DHT22;16702;50.898;4.662;2024-01-15T09:35:22;2.80;99.90
29803;DHT22;16702;50.898;4.662;2024-01-15T09:37:52;2.90;99.90
29803;DHT22;16702;50.898;4.662;2024-01-15T09:40:23;2.90;99.90
29803;DHT22;16702;50.898;4.662;2024-01-15T09:42:58;2.80;99.90
29803;DHT22;16702;50.898;4.662;2024-01-15T09:45:29;3.00;99.90
29803;DHT22;16702;50.898;4.662;2024-01-15T09:48:00;2.90;99.90
29803;DHT22;16702;50.898;4.662;2024-01-15T09:50:31;2.90;99.90
29803;DHT22;16702;50.898;4.662;2024-01-15T09:53:01;2.90;99.90
29803;DHT22;16702;50.898;4.662;2024-01-15T09:55:32;3.00;99.90
29803;DHT22;16702;50.898;4.662;2024-01-15T09:58:06;3.00;99.90
29803;DHT22;16702;50.898;4.662;2024-01-15T10:00:37;3.00;99.90
29803;DHT22;16702;50.898;4.662;2024-01-15T10:03:10;3.00;99.90
29803;DHT22;16702;50.898;4.662;2024-01-15T10:05:41;3.10;99.90
29803;DHT22;16702;50.898;4.662;2024-01-15T10:08:12;3.10;99.90
29803;DHT22;16702;50.898;4.662;2024-01-15T10:10:44;3.10;99.90
29803;DHT22;16702;50.898;4.662;2024-01-15T10:13:17;3.10;99.90
29803;DHT22;16702;50.898;4.662;2024-01-15T10:15:48;3.10;99.90
29803;DHT22;16702;50.898;4.662;2024-01-15T10:18:18;3.20;99.90
29803;DHT22;16702;50.898;4.662;2024-01-15T10:20:49;3.20;99.90
29803;DHT22;16702;50.898;4.662;2024-01-15T10:23:20;3.20;99.90
29803;DHT22;16702;50.898;4.662;2024-01-15T10:25:51;3.20;99.90
29803;DHT22;16702;50.898;4.662;2024-01-15T10:28:26;3.30;99.90
29803;DHT22;16702;50.898;4.662;2024-01-15T10:30:58;3.30;99.90
29803;DHT22;16702;50.898;4.662;2024-01-15T10:33:30;3.30;99.90
29803;DHT22;16702;50.898;4.662;2024-01-15T10:36:01;3.40;99.90
29803;DHT22;16702;50.898;4.662;2024-01-15T10:38:31;3.40;99.90
29803;DHT22;16702;50.898;4.662;2024-01-15T10:41:02;3.50;99.90
29803;DHT22;16702;50.898;4.662;2024-01-15T10:43:37;3.50;99.90
29803;DHT22;16702;50.898;4.662;2024-01-15T10:46:08;3.50;99.90
29803;DHT22;16702;50.898;4.662;2024-01-15T10:48:40;3.50;99.90
29803;DHT22;16702;50.898;4.662;2024-01-15T10:51:10;3.50;99.90
29803;DHT22;16702;50.898;4.662;2024-01-15T10:53:44;3.50;99.90
29803;DHT22;16702;50.898;4.662;2024-01-15T10:56:16;3.60;99.90
29803;DHT22;16702;50.898;4.662;2024-01-15T10:58:50;3.60;99.90
29803;DHT22;16702;50.898;4.662;2024-01-15T11:01:25;3.60;99.90
29803;DHT22;16702;50.898;4.662;2024-01-15T11:03:57;3.70;99.90
29803;DHT22;16702;50.898;4.662;2024-01-15T11:06:41;3.80;99.90
29803;DHT22;16702;50.898;4.662;2024-01-15T11:09:12;3.80;99.90
29803;DHT22;16702;50.898;4.662;2024-01-15T11:11:47;3.80;99.90
29803;DHT22;16702;50.898;4.662;2024-01-15T11:14:41;3.70;99.90
29803;DHT22;16702;50.898;4.662;2024-01-15T11:17:12;3.80;99.90
29803;DHT22;16702;50.898;4.662;2024-01-15T11:19:44;3.80;99.90
29803;DHT22;16702;50.898;4.662;2024-01-15T11:22:48;3.80;99.90
29803;DHT22;16702;50.898;4.662;2024-01-15T11:25:19;3.80;99.90
29803;DHT22;16702;50.898;4.662;2024-01-15T11:27:51;3.80;99.90
29803;DHT22;16702;50.898;4.662;2024-01-15T11:30:27;3.80;99.90
29803;DHT22;16702;50.898;4.662;2024-01-15T11:32:58;3.80;99.90
29803;DHT22;16702;50.898;4.662;2024-01-15T11:35:49;3.90;99.90
29803;DHT22;16702;50.898;4.662;2024-01-15T11:38:29;3.90;99.90
29803;DHT22;16702;50.898;4.662;2024-01-15T11:40:59;3.90;99.90
29803;DHT22;16702;50.898;4.662;2024-01-15T11:43:30;3.90;99.90
29803;DHT22;16702;50.898;4.662;2024-01-15T11:46:04;3.90;99.90
29803;DHT22;16702;50.898;4.662;2024-01-15T11:48:43;4.00;99.90
29803;DHT22;16702;50.898;4.662;2024-01-15T11:51:17;4.00;99.90
29803;DHT22;16702;50.898;4.662;2024-01-15T11:53:53;4.10;99.90
29803;DHT22;16702;50.898;4.662;2024-01-15T11:56:28;4.10;99.90
29803;DHT22;16702;50.898;4.662;2024-01-15T11:59:00;4.10;99.90
29803;DHT22;16702;50.898;4.662;2024-01-15T12:01:34;4.20;99.90
29803;DHT22;16702;50.898;4.662;2024-01-15T12:04:04;4.20;99.90
29803;DHT22;16702;50.898;4.662;2024-01-15T12:06:35;4.10;99.90
29803;DHT22;16702;50.898;4.662;2024-01-15T12:09:06;4.10;99.90
29803;DHT22;16702;50.898;4.662;2024-01-15T12:11:39;4.10;99.90
29803;DHT22;16702;50.898;4.662;2024-01-15T12:14:13;4.10;99.90
29803;DHT22;16702;50.898;4.662;2024-01-15T12:16:46;4.30;99.90
29803;DHT22;16702;50.898;4.662;2024-01-15T12:19:17;4.20;99.90
29803;DHT22;16702;50.898;4.662;2024-01-15T12:21:48;4.20;99.90
29803;DHT22;16702;50.898;4.662;2024-01-15T12:24:20;4.30;99.90
29803;DHT22;16702;50.898;4.662;2024-01-15T12:26:51;4.40;99.90
29803;DHT22;16702;50.898;4.662;2024-01-15T12:29:22;4.40;99.90
29803;DHT22;16702;50.898;4.662;2024-01-15T12:31:56;4.40;99.90
29803;DHT22;16702;50.898;4.662;2024-01-15T12:34:29;4.30;99.90
29803;DHT22;16702;50.898;4.662;2024-01-15T12:37:00;4.30;99.90
29803;DHT22;16702;50.898;4.662;2024-01-15T12:39:31;4.50;99.90
29803;DHT22;16702;50.898;4.662;2024-01-15T12:42:04;4.50;99.90
29803;DHT22;16702;50.898;4.662;2024-01-15T12:44:36;4.40;99.90
29803;DHT22;16702;50.898;4.662;2024-01-15T12:47:09;4.30;99.90
29803;DHT22;16702;50.898;4.662;2024-01-15T12:49:41;4.40;99.90
29803;DHT22;16702;50.898;4.662;2024-01-15T12:52:09;4.30;99.90
29803;DHT22;16702;50.898;4.662;2024-01-15T12:54:41;4.30;99.90
29803;DHT22;16702;50.898;4.662;2024-01-15T12:57:11;4.30;99.90
29803;DHT22;16702;50.898;4.662;2024-01-15T12:59:43;4.10;99.90
29803;DHT22;16702;50.898;4.662;2024-01-15T13:02:19;3.90;99.90
29803;DHT22;16702;50.898;4.662;2024-01-15T13:04:49;3.80;99.90
29803;DHT22;16702;50.898;4.662;2024-01-15T13:07:22;3.90;99.90
29803;DHT22;16702;50.898;4.662;2024-01-15T13:09:52;3.80;99.90
29803;DHT22;16702;50.898;4.662;2024-01-15T13:12:23;3.80;99.90
29803;DHT22;16702;50.898;4.662;2024-01-15T13:14:53;3.70;99.90
29803;DHT22;16702;50.898;4.662;2024-01-15T13:17:28;3.60;99.90
29803;DHT22;16702;50.898;4.662;2024-01-15T13:19:59;3.40;99.90
29803;DHT22;16702;50.898;4.662;2024-01-15T13:22:30;3.40;99.90
29803;DHT22;16702;50.898;4.662;2024-01-15T13:25:01;3.20;99.90
29803;DHT22;16702;50.898;4.662;2024-01-15T13:27:34;3.20;99.90
29803;DHT22;16702;50.898;4.662;2024-01-15T13:30:07;3.20;99.90
29803;DHT22;16702;50.898;4.662;2024-01-15T13:32:41;3.30;99.90
29803;DHT22;16702;50.898;4.662;2024-01-15T13:35:12;3.30;99.90
29803;DHT22;16702;50.898;4.662;2024-01-15T13:37:42;3.30;99.90
29803;DHT22;16702;50.898;4.662;2024-01-15T13:40:13;3.30;99.90
29803;DHT22;16702;50.898;4.662;2024-01-15T13:42:47;3.30;99.90
29803;DHT22;16702;50.898;4.662;2024-01-15T13:45:20;3.20;99.90
29803;DHT22;16702;50.898;4.662;2024-01-15T13:47:54;3.10;99.90
29803;DHT22;16702;50.898;4.662;2024-01-15T13:50:25;3.00;99.90
29803;DHT22;16702;50.898;4.662;2024-01-15T13:52:55;3.00;99.90
29803;DHT22;16702;50.898;4.662;2024-01-15T13:55:26;2.90;99.90
29803;DHT22;16702;50.898;4.662;2024-01-15T13:57:57;3.00;99.90
29803;DHT22;16702;50.898;4.662;2024-01-15T14:00:27;2.90;99.90
29803;DHT22;16702;50.898;4.662;2024-01-15T14:03:01;2.80;99.90
29803;DHT22;16702;50.898;4.662;2024-01-15T14:05:31;2.90;99.90
29803;DHT22;16702;50.898;4.662;2024-01-15T14:08:02;2.90;99.90
29803;DHT22;16702;50.898;4.662;2024-01-15T14:10:33;2.90;99.90
29803;DHT22;16702;50.898;4.662;2024-01-15T14:13:04;2.80;99.90
29803;DHT22;16702;50.898;4.662;2024-01-15T14:15:36;3.00;99.90
29803;DHT22;16702;50.898;4.662;2024-01-15T14:18:10;3.10;99.90
29803;DHT22;16702;50.898;4.662;2024-01-15T14:20:41;3.10;99.90
29803;DHT22;16702;50.898;4.662;2024-01-15T14:23:12;3.30;99.90
29803;DHT22;16702;50.898;4.662;2024-01-15T14:25:43;3.30;99.90
29803;DHT22;16702;50.898;4.662;2024-01-15T14:28:14;3.30;99.90
29803;DHT22;16702;50.898;4.662;2024-01-15T14:30:45;3.30;99.90
29803;DHT22;16702;50.898;4.662;2024-01-15T14:33:18;3.10;99.90
29803;DHT22;16702;50.898;4.662;2024-01-15T14:35:49;3.00;99.90
29803;DHT22;16702;50.898;4.662;2024-01-15T14:38:19;3.00;99.90
29803;DHT22;16702;50.898;4.662;2024-01-15T14:40:50;3.00;99.90
29803;DHT22;16702;50.898;4.662;2024-01-15T14:43:21;3.00;99.90
29803;DHT22;16702;50.898;4.662;2024-01-15T14:45:51;3.10;99.90
29803;DHT22;16702;50.898;4.662;2024-01-15T14:48:25;3.10;99.90
29803;DHT22;16702;50.898;4.662;2024-01-15T14:50:55;3.10;99.90
29803;DHT22;16702;50.898;4.662;2024-01-15T14:53:26;3.00;99.90
29803;DHT22;16702;50.898;4.662;2024-01-15T14:55:57;3.10;99.90
29803;DHT22;16702;50.898;4.662;2024-01-15T14:58:27;3.10;99.90
29803;DHT22;16702;50.898;4.662;2024-01-15T15:00:59;3.10;99.90
29803;DHT22;16702;50.898;4.662;2024-01-15T15:03:32;3.10;99.90
29803;DHT22;16702;50.898;4.662;2024-01-15T15:06:03;3.10;99.90
29803;DHT22;16702;50.898;4.662;2024-01-15T15:08:36;3.10;99.90
29803;DHT22;16702;50.898;4.662;2024-01-15T15:11:07;3.10;99.90
29803;DHT22;16702;50.898;4.662;2024-01-15T15:13:39;3.10;99.90
29803;DHT22;16702;50.898;4.662;2024-01-15T15:16:12;3.10;99.90
29803;DHT22;16702;50.898;4.662;2024-01-15T15:18:45;3.10;99.90
29803;DHT22;16702;50.898;4.662;2024-01-15T15:21:16;3.10;99.90
29803;DHT22;16702;50.898;4.662;2024-01-15T15:23:47;3.00;99.90
29803;DHT22;16702;50.898;4.662;2024-01-15T15:26:17;3.00;99.90
29803;DHT22;16702;50.898;4.662;2024-01-15T15:28:48;3.00;99.90
29803;DHT22;16702;50.898;4.662;2024-01-15T15:31:18;3.00;99.90
29803;DHT22;16702;50.898;4.662;2024-01-15T15:33:52;3.00;99.90
29803;DHT22;16702;50.898;4.662;2024-01-15T15:36:22;3.00;99.90
29803;DHT22;16702;50.898;4.662;2024-01-15T15:38:53;3.00;99.90
29803;DHT22;16702;50.898;4.662;2024-01-15T15:41:25;3.10;99.90
29803;DHT22;16702;50.898;4.662;2024-01-15T15:43:56;3.00;99.90
29803;DHT22;16702;50.898;4.662;2024-01-15T15:46:26;2.90;99.90
29803;DHT22;16702;50.898;4.662;2024-01-15T15:49:00;2.90;99.90
29803;DHT22;16702;50.898;4.662;2024-01-15T15:51:34;3.00;99.90
29803;DHT22;16702;50.898;4.662;2024-01-15T15:54:05;3.00;99.90
29803;DHT22;16702;50.898;4.662;2024-01-15T15:56:36;3.00;99.90
29803;DHT22;16702;50.898;4.662;2024-01-15T15:59:09;3.00;99.90
29803;DHT22;16702;50.898;4.662;2024-01-15T16:01:40;2.90;99.90
29803;DHT22;16702;50.898;4.662;2024-01-15T16:04:14;2.90;99.90
29803;DHT22;16702;50.898;4.662;2024-01-15T16:06:45;3.00;99.90
29803;DHT22;16702;50.898;4.662;2024-01-15T16:09:16;2.90;99.90
29803;DHT22;16702;50.898;4.662;2024-01-15T16:11:47;2.90;99.90